Overview Statistics Trail Chart Weather Telemetry Raw packets
 

This is the latest recevied weather packets stored in our database for station/object SV9FBP-13. If no packets are shown the sender has not sent any weather packets the latest 10 day(s).

<< 5 6 7 8 9 10 11 >>
Time Temp. Humidity Pressure Rain* Wind** Luminosity Snow
1788509417 31.67° C 40% 1008.2 hPa 0 mm - - -
1788508514 31.67° C 39% 1008.4 hPa 0 mm - - -
1788507612 31.11° C 40% 1008.2 hPa 0 mm - - -
1788506710 31.11° C 40% 1008 hPa 0 mm - - -
1788505808 30.56° C 41% 1007.7 hPa 0 mm - - -
1788504906 30° C 43% 1007.4 hPa 0 mm - - -
1788504003 30° C 43% 1007.4 hPa 0 mm - - -
1788503102 29.44° C 47% 1007.6 hPa 0 mm - - -
1788502199 29.44° C 49% 1007.5 hPa 0 mm - - -
1788501297 29.44° C 50% 1007.5 hPa 0 mm - - -
1788500395 28.89° C 50% 1007.6 hPa 0 mm - - -
1788499496 28.89° C 47% 1007.4 hPa 0 mm - - -
1788498590 28.33° C 48% 1007.3 hPa 0 mm - - -
1788497688 28.33° C 46% 1007.4 hPa 0 mm - - -
1788496786 27.78° C 49% 1007.2 hPa 0 mm - - -
1788495884 27.22° C 52% 1007.2 hPa 0 mm - - -
1788494982 26.67° C 52% 1007 hPa 0 mm - - -
1788494080 26.67° C 56% 1006.8 hPa 0 mm - - -
1788493178 26.11° C 60% 1006.9 hPa 0 mm - - -
1788492276 26.11° C 60% 1007.1 hPa 0 mm - - -
1788491374 26.67° C 58% 1007.1 hPa 0 mm - - -
1788490472 26.67° C 58% 1007.2 hPa 0 mm - - -
1788489569 26.67° C 57% 1007 hPa 0 mm - - -
1788488667 26.67° C 59% 1006.8 hPa 0 mm - - -
1788487765 26.67° C 56% 1006.8 hPa 0 mm - - -

* Rain latest hour (hover to see other rain measurements)
** Current wind speed in m/s (hover to see current wind gust speed)